createdAt,value
2019-03-21T00:01:37.761Z,78.11
2019-03-21T00:04:14.798Z,78.09
2019-03-21T00:06:46.836Z,77.90
2019-03-21T00:09:19.855Z,77.80
2019-03-21T00:12:09.193Z,78.02
2019-03-21T00:14:55.531Z,78.56
2019-03-21T00:17:35.198Z,78.77
2019-03-21T00:20:11.575Z,78.49
2019-03-21T00:22:43.668Z,78.59
2019-03-21T00:25:18.720Z,78.91
2019-03-21T00:27:50.833Z,79.21
2019-03-21T00:30:23.871Z,79.38
2019-03-21T00:32:56.140Z,79.64
2019-03-21T00:35:28.264Z,79.88
2019-03-21T00:38:00.339Z,79.89
2019-03-21T00:40:35.982Z,80.00
2019-03-21T00:43:10.281Z,80.29
2019-03-21T00:45:42.380Z,80.60
2019-03-21T00:48:16.709Z,80.72
2019-03-21T00:50:48.823Z,80.94
2019-03-21T00:53:20.908Z,81.24
2019-03-21T00:55:53.973Z,81.44
2019-03-21T00:58:26.080Z,81.31
2019-03-21T01:00:58.600Z,81.24
2019-03-21T01:03:30.773Z,81.00
2019-03-21T01:06:02.905Z,81.61
2019-03-21T01:08:34.977Z,81.75
2019-03-21T01:11:07.062Z,81.66
2019-03-21T01:13:39.202Z,81.66
2019-03-21T01:16:11.279Z,81.78
2019-03-21T01:18:43.403Z,81.82
2019-03-21T01:21:15.478Z,81.98
2019-03-21T01:23:47.482Z,82.11
2019-03-21T01:26:19.631Z,82.28
2019-03-21T01:28:51.712Z,82.25
2019-03-21T01:31:23.779Z,82.24
2019-03-21T01:33:55.894Z,82.13
2019-03-21T01:36:28.135Z,82.14
2019-03-21T01:39:00.253Z,82.33
2019-03-21T01:41:32.274Z,82.41
2019-03-21T01:44:04.491Z,82.48
2019-03-21T01:46:36.600Z,82.53
2019-03-21T01:49:08.695Z,82.71
2019-03-21T01:51:40.690Z,83.08
2019-03-21T01:54:12.828Z,83.50
2019-03-21T01:56:44.931Z,83.76
2019-03-21T01:59:17.038Z,84.09
2019-03-21T02:01:49.173Z,84.24
2019-03-21T02:04:21.283Z,84.83
2019-03-21T02:06:53.366Z,85.29
2019-03-21T02:09:25.496Z,85.64
2019-03-21T02:11:57.618Z,84.99
2019-03-21T02:14:29.702Z,85.36
2019-03-21T02:17:01.886Z,85.42
2019-03-21T02:19:33.987Z,85.35
2019-03-21T02:22:06.121Z,85.39
2019-03-21T02:24:38.221Z,85.59
2019-03-21T02:27:10.292Z,85.36
2019-03-21T02:29:42.326Z,84.91
2019-03-21T02:32:14.376Z,84.46
2019-03-21T02:34:46.422Z,84.29
2019-03-21T02:37:18.512Z,84.72
2019-03-21T02:39:59.281Z,86.30
2019-03-21T02:42:24.508Z,86.44
2019-03-21T02:45:07.695Z,86.21
2019-03-21T02:47:30.429Z,87.03
2019-03-21T02:50:02.582Z,87.11
2019-03-21T02:52:34.688Z,86.45
2019-03-21T02:55:07.328Z,86.35
2019-03-21T02:57:39.431Z,85.53
2019-03-21T03:00:16.525Z,85.07
2019-03-21T03:02:49.376Z,86.59
2019-03-21T03:05:24.505Z,87.67
2019-03-21T03:08:00.185Z,86.85
2019-03-21T03:10:36.721Z,85.80
2019-03-21T03:13:08.844Z,85.43
2019-03-21T03:15:40.967Z,85.55
2019-03-21T03:18:13.246Z,85.52
2019-03-21T03:20:45.485Z,86.52
2019-03-21T03:23:17.607Z,87.06
2019-03-21T03:25:51.233Z,86.68
2019-03-21T03:28:25.752Z,86.28
2019-03-21T03:30:58.318Z,87.20
2019-03-21T03:33:30.440Z,88.20
2019-03-21T03:36:02.615Z,88.25
2019-03-21T03:38:34.686Z,88.15
2019-03-21T03:41:06.933Z,88.29
2019-03-21T03:43:39.046Z,88.06
2019-03-21T03:46:11.186Z,87.41
2019-03-21T03:48:43.341Z,87.72
2019-03-21T03:51:15.501Z,88.70
2019-03-21T03:53:47.650Z,88.53
2019-03-21T03:56:19.845Z,87.86
2019-03-21T03:58:53.031Z,87.61
2019-03-21T04:01:25.148Z,87.10
2019-03-21T04:03:57.439Z,87.04
2019-03-21T04:06:29.541Z,88.45
2019-03-21T04:09:01.648Z,89.14
2019-03-21T04:11:33.837Z,88.93
2019-03-21T04:14:05.945Z,88.67
2019-03-21T04:16:38.038Z,88.38
2019-03-21T04:19:10.163Z,87.90
2019-03-21T04:21:42.236Z,87.76
2019-03-21T04:24:14.347Z,88.73
2019-03-21T04:26:46.452Z,89.13
2019-03-21T04:29:18.619Z,89.16
2019-03-21T04:31:50.725Z,89.09
2019-03-21T04:34:22.821Z,88.56
2019-03-21T04:36:54.930Z,88.45
2019-03-21T04:39:27.037Z,89.10
2019-03-21T04:41:59.447Z,89.36
2019-03-21T04:44:31.602Z,89.06
2019-03-21T04:47:03.692Z,88.78
2019-03-21T04:49:35.822Z,88.75
2019-03-21T04:52:07.962Z,88.79
2019-03-21T04:54:40.082Z,88.52
2019-03-21T04:57:12.159Z,88.04
2019-03-21T04:59:44.270Z,88.22
2019-03-21T05:02:16.378Z,89.08
2019-03-21T05:04:48.498Z,89.80
2019-03-21T05:07:20.611Z,89.69
2019-03-21T05:09:52.700Z,89.34
2019-03-21T05:12:24.732Z,89.09
2019-03-21T05:14:56.875Z,89.37
2019-03-21T05:17:28.974Z,89.55
2019-03-21T05:20:01.005Z,89.45
2019-03-21T05:22:36.371Z,88.82
2019-03-21T05:25:10.579Z,88.82
2019-03-21T05:27:42.767Z,89.56
2019-03-21T05:30:22.765Z,90.01
2019-03-21T05:32:54.923Z,90.10
2019-03-21T05:35:27.050Z,89.94
2019-03-21T05:37:59.116Z,89.74
2019-03-21T05:40:31.207Z,90.21
2019-03-21T05:43:08.229Z,90.01
2019-03-21T05:45:40.338Z,89.83
2019-03-21T05:48:12.491Z,89.25
2019-03-21T05:50:44.647Z,88.59
2019-03-21T05:53:16.801Z,88.72
2019-03-21T05:55:48.942Z,88.39
2019-03-21T05:58:21.139Z,88.17
2019-03-21T06:00:53.227Z,88.76
2019-03-21T06:03:29.690Z,89.25
2019-03-21T06:06:10.550Z,88.67
2019-03-21T06:08:43.062Z,88.63
2019-03-21T06:11:15.143Z,88.84
2019-03-21T06:13:47.184Z,88.61
2019-03-21T06:16:19.260Z,87.89
2019-03-21T06:20:06.912Z,87.82
2019-03-21T06:23:23.808Z,86.95
2019-03-21T06:26:30.820Z,86.66
2019-03-21T06:29:02.950Z,86.02
2019-03-21T06:31:35.164Z,85.46
2019-03-21T06:34:07.259Z,84.96
2019-03-21T06:36:39.267Z,84.82
2019-03-21T06:39:11.742Z,84.87
2019-03-21T06:41:43.847Z,83.89
2019-03-21T06:44:15.994Z,83.11
2019-03-21T06:46:49.626Z,82.04
2019-03-21T06:49:22.066Z,81.49
2019-03-21T06:51:54.098Z,80.74
2019-03-21T06:54:26.184Z,79.86
2019-03-21T06:56:58.325Z,78.70
2019-03-21T06:59:30.504Z,76.54
2019-03-21T07:02:02.625Z,75.74
2019-03-21T07:04:34.733Z,73.54
2019-03-21T07:07:08.293Z,72.39
2019-03-21T07:09:40.955Z,71.33
2019-03-21T07:12:13.058Z,70.95
2019-03-21T07:14:45.220Z,70.00
2019-03-21T07:17:17.375Z,68.52
2019-03-21T07:19:49.562Z,67.91
2019-03-21T07:22:21.691Z,66.60
2019-03-21T07:24:53.801Z,65.47
2019-03-21T07:27:25.939Z,65.11
2019-03-21T07:29:58.034Z,63.89
2019-03-21T07:32:33.592Z,62.87
2019-03-21T07:35:03.885Z,62.01
2019-03-21T07:37:36.037Z,61.10
2019-03-21T07:40:10.259Z,59.51
2019-03-21T07:42:42.456Z,59.21
2019-03-21T07:45:14.582Z,58.31
2019-03-21T07:47:46.672Z,57.04
2019-03-21T07:50:18.923Z,56.04
2019-03-21T07:52:51.041Z,54.88
2019-03-21T07:55:23.177Z,53.34
2019-03-21T07:57:55.351Z,52.55
2019-03-21T08:00:27.502Z,51.79
2019-03-21T08:02:59.558Z,50.09
2019-03-21T08:05:39.769Z,48.36
2019-03-21T08:08:05.542Z,45.98
2019-03-21T08:10:37.713Z,46.18
2019-03-21T08:13:09.814Z,46.43
2019-03-21T08:15:41.841Z,46.92
2019-03-21T08:18:13.923Z,46.24
2019-03-21T08:20:56.321Z,45.68
2019-03-21T08:23:19.773Z,45.21
2019-03-21T08:25:51.923Z,44.37
2019-03-21T08:28:24.052Z,43.70
2019-03-21T08:31:18.755Z,41.79
2019-03-21T08:33:50.838Z,41.80
2019-03-21T08:36:24.156Z,41.46
2019-03-21T08:38:56.298Z,41.11
2019-03-21T08:41:28.375Z,40.87
2019-03-21T08:44:00.531Z,40.27
2019-03-21T08:46:32.639Z,39.50
2019-03-21T08:49:04.888Z,39.55
2019-03-21T08:51:37.042Z,38.44
2019-03-21T08:54:09.169Z,37.44
2019-03-21T08:56:41.265Z,37.32
2019-03-21T08:59:13.396Z,38.71
2019-03-21T09:01:45.379Z,38.07
2019-03-21T09:04:17.505Z,37.92
2019-03-21T09:06:49.590Z,37.48
2019-03-21T09:09:21.703Z,37.55
2019-03-21T09:11:53.841Z,35.81
2019-03-21T09:14:25.940Z,34.75
2019-03-21T09:16:58.023Z,34.41
2019-03-21T09:19:30.081Z,34.09
2019-03-21T09:22:02.112Z,33.20
2019-03-21T09:24:36.678Z,33.55
2019-03-21T09:27:08.781Z,34.31
2019-03-21T09:29:40.965Z,34.70
2019-03-21T09:32:13.130Z,35.38
2019-03-21T09:34:45.270Z,34.35
2019-03-21T09:37:17.348Z,33.68
2019-03-21T09:39:49.469Z,33.88
2019-03-21T09:42:21.498Z,32.78
2019-03-21T09:44:53.600Z,33.00
2019-03-21T09:47:25.685Z,33.82
2019-03-21T09:49:59.286Z,33.41
2019-03-21T09:52:31.611Z,33.51
2019-03-21T09:55:03.992Z,34.98
2019-03-21T09:57:36.190Z,33.55
2019-03-21T10:00:08.744Z,32.47
2019-03-21T10:02:40.853Z,32.59
2019-03-21T10:05:12.972Z,31.70
2019-03-21T10:07:45.086Z,31.98
2019-03-21T10:10:26.727Z,31.54
2019-03-21T10:12:58.873Z,31.61
2019-03-21T10:15:31.054Z,31.32
2019-03-21T10:18:03.184Z,30.92
2019-03-21T10:20:35.342Z,30.28
2019-03-21T10:23:07.451Z,29.78
2019-03-21T10:25:39.613Z,30.19
2019-03-21T10:28:11.648Z,29.43
2019-03-21T10:30:44.367Z,29.25
2019-03-21T10:33:16.915Z,28.51
2019-03-21T10:35:49.044Z,28.60
2019-03-21T10:38:21.127Z,26.87
2019-03-21T10:40:53.272Z,26.99
2019-03-21T10:43:25.355Z,27.83
2019-03-21T10:45:57.438Z,28.45
2019-03-21T10:48:29.494Z,29.81
2019-03-21T10:51:01.639Z,28.66
2019-03-21T10:53:33.653Z,29.31
2019-03-21T10:56:05.739Z,29.58
2019-03-21T10:58:37.774Z,28.50
2019-03-21T11:01:09.934Z,27.84
2019-03-21T11:03:41.994Z,29.16
2019-03-21T11:06:14.122Z,27.46
2019-03-21T11:08:46.296Z,27.87
2019-03-21T11:11:18.411Z,27.60
2019-03-21T11:13:50.501Z,26.38
2019-03-21T11:16:22.632Z,27.33
2019-03-21T11:18:54.744Z,26.38
2019-03-21T11:21:26.858Z,26.76
2019-03-21T11:23:58.986Z,27.45
2019-03-21T11:26:31.149Z,26.65
2019-03-21T11:29:03.213Z,25.83
2019-03-21T11:31:35.309Z,26.98
2019-03-21T11:34:07.440Z,26.55
2019-03-21T11:36:39.554Z,27.51
2019-03-21T11:39:11.686Z,28.40
2019-03-21T11:41:43.812Z,27.49
2019-03-21T11:44:15.933Z,29.22
2019-03-21T11:46:48.006Z,28.54
2019-03-21T11:49:20.076Z,30.10
2019-03-21T11:51:52.085Z,29.73
2019-03-21T11:54:24.199Z,29.09
2019-03-21T11:56:56.210Z,28.85
2019-03-21T11:59:41.404Z,28.20
2019-03-21T12:02:02.092Z,27.35
2019-03-21T12:04:34.242Z,25.35
2019-03-21T12:07:06.376Z,28.51
2019-03-21T12:09:38.479Z,27.08
2019-03-21T12:12:10.589Z,26.98
2019-03-21T12:14:42.732Z,26.91
2019-03-21T12:17:14.820Z,26.26
2019-03-21T12:19:46.915Z,26.50
2019-03-21T12:22:29.381Z,26.37
2019-03-21T12:24:52.778Z,24.84
2019-03-21T12:27:24.861Z,25.15
2019-03-21T12:29:57.158Z,27.62
2019-03-21T12:32:29.277Z,26.49
2019-03-21T12:35:01.309Z,26.11
2019-03-21T12:37:33.428Z,25.43
2019-03-21T12:40:06.598Z,25.38
2019-03-21T12:42:38.673Z,25.37
2019-03-21T12:45:11.235Z,25.55
2019-03-21T12:47:43.330Z,25.64
2019-03-21T12:50:15.560Z,23.85
2019-03-21T12:52:47.699Z,24.42
2019-03-21T12:55:19.833Z,25.08
2019-03-21T12:57:51.979Z,25.52
2019-03-21T13:00:44.396Z,25.07
2019-03-21T13:03:16.489Z,25.92
2019-03-21T13:05:48.580Z,25.53
2019-03-21T13:08:20.726Z,25.55
2019-03-21T13:10:52.749Z,25.83
2019-03-21T13:13:24.898Z,25.60
2019-03-21T13:15:56.998Z,25.28
2019-03-21T13:18:29.103Z,24.68
2019-03-21T13:21:01.242Z,25.00
2019-03-21T13:23:33.398Z,24.69
2019-03-21T13:26:05.551Z,24.67
2019-03-21T13:28:37.693Z,24.24
2019-03-21T13:31:09.808Z,24.06
2019-03-21T13:33:41.983Z,24.21
2019-03-21T13:36:14.121Z,24.12
2019-03-21T13:38:46.277Z,22.98
2019-03-21T13:41:18.385Z,23.96
2019-03-21T13:43:50.532Z,23.77
2019-03-21T13:46:22.659Z,24.09
2019-03-21T13:48:54.667Z,23.28
2019-03-21T13:51:26.796Z,23.08
2019-03-21T13:53:58.842Z,23.59
2019-03-21T13:56:37.914Z,23.95
2019-03-21T13:59:04.864Z,23.82
2019-03-21T14:01:36.888Z,23.80
2019-03-21T14:04:08.945Z,23.81
2019-03-21T14:06:41.074Z,22.90
2019-03-21T14:09:13.206Z,24.14
2019-03-21T14:11:45.323Z,23.40
2019-03-21T14:14:17.475Z,22.84
2019-03-21T14:16:50.961Z,22.99
2019-03-21T14:19:23.184Z,23.51
2019-03-21T14:21:55.332Z,25.22
2019-03-21T14:24:27.555Z,24.63
2019-03-21T14:26:59.661Z,24.29
2019-03-21T14:29:32.006Z,24.27
2019-03-21T14:32:04.178Z,23.16
2019-03-21T14:34:36.322Z,24.44
2019-03-21T14:37:08.408Z,23.70
2019-03-21T14:39:40.537Z,23.77
2019-03-21T14:42:12.653Z,24.45
2019-03-21T14:44:44.783Z,23.61
2019-03-21T14:47:16.885Z,24.33
2019-03-21T14:49:48.986Z,23.80
2019-03-21T14:52:21.138Z,22.84
2019-03-21T14:54:53.316Z,24.44
2019-03-21T14:57:25.429Z,24.29
2019-03-21T14:59:57.518Z,24.29
2019-03-21T15:02:29.594Z,23.50
2019-03-21T15:05:01.671Z,23.81
2019-03-21T15:07:33.950Z,24.45
2019-03-21T15:10:06.781Z,23.23
2019-03-21T15:12:38.790Z,23.96
2019-03-21T15:15:11.973Z,24.58
2019-03-21T15:17:44.080Z,23.76
2019-03-21T15:20:16.837Z,25.01
2019-03-21T15:22:48.984Z,24.10
2019-03-21T15:25:21.203Z,24.27
2019-03-21T15:27:53.251Z,24.37
2019-03-21T15:30:25.377Z,24.16
2019-03-21T15:32:57.524Z,24.83
2019-03-21T15:35:29.549Z,24.99
2019-03-21T15:38:01.578Z,24.79
2019-03-21T15:40:33.721Z,26.24
2019-03-21T15:43:05.851Z,26.18
2019-03-21T15:45:37.994Z,26.65
2019-03-21T15:48:10.149Z,26.44
2019-03-21T15:50:44.962Z,26.48
2019-03-21T15:53:17.106Z,26.42
2019-03-21T15:55:49.167Z,25.80
2019-03-21T15:58:21.347Z,26.28
2019-03-21T16:00:53.464Z,27.11
2019-03-21T16:03:25.579Z,25.82
2019-03-21T16:05:57.766Z,27.01
2019-03-21T16:08:29.995Z,26.77
2019-03-21T16:11:02.099Z,26.91
2019-03-21T16:13:34.182Z,27.54
2019-03-21T16:16:06.313Z,28.03
2019-03-21T16:18:38.482Z,27.69
2019-03-21T16:21:10.592Z,27.98
2019-03-21T16:23:42.764Z,28.16
2019-03-21T16:26:14.960Z,28.03
2019-03-21T16:28:47.092Z,27.98
2019-03-21T16:31:19.112Z,28.98
2019-03-21T16:33:51.277Z,28.55
2019-03-21T16:36:23.418Z,28.56
2019-03-21T16:38:55.518Z,28.89
2019-03-21T16:41:27.676Z,29.58
2019-03-21T16:43:59.844Z,29.53
2019-03-21T16:46:32.001Z,29.98
2019-03-21T16:49:04.112Z,30.52
2019-03-21T16:51:36.363Z,30.24
2019-03-21T16:54:16.919Z,30.37
2019-03-21T16:56:42.293Z,31.11
2019-03-21T16:59:14.440Z,31.58
2019-03-21T17:01:46.463Z,31.57
2019-03-21T17:04:18.600Z,32.32
2019-03-21T17:06:50.767Z,32.77
2019-03-21T17:09:22.884Z,33.24
2019-03-21T17:11:54.982Z,34.37
2019-03-21T17:14:27.078Z,35.47
2019-03-21T17:16:59.236Z,36.09
2019-03-21T17:19:31.319Z,36.83
2019-03-21T17:22:03.423Z,37.52
2019-03-21T17:24:35.592Z,38.08
2019-03-21T17:27:07.763Z,38.45
2019-03-21T17:29:39.755Z,38.80
2019-03-21T17:32:11.844Z,39.26
2019-03-21T17:34:44.031Z,39.84
2019-03-21T17:37:16.102Z,40.26
2019-03-21T17:39:48.227Z,40.70
2019-03-21T17:42:21.153Z,41.18
2019-03-21T17:44:53.315Z,41.72
2019-03-21T17:47:25.369Z,42.03
2019-03-21T17:49:57.418Z,42.61
2019-03-21T17:52:29.449Z,42.97
2019-03-21T17:55:01.587Z,43.46
2019-03-21T17:57:34.877Z,43.88
2019-03-21T18:00:11.189Z,44.38
2019-03-21T18:02:43.381Z,44.88
2019-03-21T18:05:15.595Z,45.27
2019-03-21T18:07:47.733Z,45.60
2019-03-21T18:10:30.913Z,45.99
2019-03-21T18:13:03.447Z,46.27
2019-03-21T18:15:35.563Z,46.51
2019-03-21T18:18:07.727Z,47.03
2019-03-21T18:20:39.826Z,47.60
2019-03-21T18:23:11.984Z,47.95
2019-03-21T18:25:44.133Z,48.24
2019-03-21T18:28:16.260Z,48.70
2019-03-21T18:30:48.408Z,49.13
2019-03-21T18:33:20.528Z,49.40
2019-03-21T18:35:52.654Z,49.42
2019-03-21T18:38:24.726Z,49.81
2019-03-21T18:40:56.799Z,50.58
2019-03-21T18:43:28.910Z,50.72
2019-03-21T18:46:01.044Z,50.91
2019-03-21T18:48:33.160Z,51.46
2019-03-21T18:51:05.301Z,51.81
2019-03-21T18:53:37.488Z,52.39
2019-03-21T18:56:09.744Z,52.74
2019-03-21T18:58:41.890Z,53.03
2019-03-21T19:01:14.080Z,53.45
2019-03-21T19:03:46.211Z,53.87
2019-03-21T19:06:18.267Z,54.46
2019-03-21T19:08:50.434Z,54.66
2019-03-21T19:11:22.671Z,55.21
2019-03-21T19:13:54.812Z,55.34
2019-03-21T19:16:26.995Z,55.68
2019-03-21T19:18:59.160Z,56.28
2019-03-21T19:21:31.322Z,56.42
2019-03-21T19:24:03.522Z,56.75
2019-03-21T19:26:35.665Z,56.95
2019-03-21T19:29:07.807Z,57.32
2019-03-21T19:31:39.976Z,57.60
2019-03-21T19:34:12.158Z,57.82
2019-03-21T19:36:44.411Z,58.34
2019-03-21T19:39:16.615Z,58.54
2019-03-21T19:41:48.714Z,58.73
2019-03-21T19:44:20.871Z,58.93
2019-03-21T19:46:52.977Z,59.14
2019-03-21T19:49:25.078Z,59.22
2019-03-21T19:51:57.269Z,59.54
2019-03-21T19:54:29.431Z,59.79
2019-03-21T19:57:01.586Z,60.01
2019-03-21T19:59:33.734Z,60.33
2019-03-21T20:02:05.880Z,60.49
2019-03-21T20:04:37.991Z,60.84
2019-03-21T20:07:10.155Z,60.99
2019-03-21T20:09:42.277Z,61.17
2019-03-21T20:12:14.482Z,61.41
2019-03-21T20:14:46.631Z,61.65
2019-03-21T20:17:18.775Z,61.80
2019-03-21T20:19:50.814Z,62.11
2019-03-21T20:22:22.919Z,62.43
2019-03-21T20:24:55.078Z,62.61
2019-03-21T20:27:27.199Z,62.78
2019-03-21T20:29:59.384Z,62.92
2019-03-21T20:32:31.461Z,63.25
2019-03-21T20:35:03.602Z,63.44
2019-03-21T20:37:35.733Z,63.59
2019-03-21T20:40:08.932Z,63.85
2019-03-21T20:42:41.082Z,64.06
2019-03-21T20:45:14.652Z,64.19
2019-03-21T20:47:46.839Z,64.23
2019-03-21T20:50:19.191Z,64.36
2019-03-21T20:52:51.343Z,64.55
2019-03-21T20:55:23.493Z,64.65
2019-03-21T20:57:55.610Z,64.98
2019-03-21T21:00:27.759Z,65.36
2019-03-21T21:02:59.902Z,65.95
2019-03-21T21:05:32.029Z,66.21
2019-03-21T21:08:04.224Z,66.62
2019-03-21T21:10:36.419Z,67.07
2019-03-21T21:13:08.533Z,67.89
2019-03-21T21:15:40.658Z,67.35
2019-03-21T21:18:12.828Z,67.32
2019-03-21T21:20:44.996Z,67.38
2019-03-21T21:23:17.128Z,67.41
2019-03-21T21:25:49.233Z,67.59
2019-03-21T21:28:21.349Z,67.19
2019-03-21T21:30:53.430Z,67.26
2019-03-21T21:33:25.566Z,67.67
2019-03-21T21:35:57.680Z,67.56
2019-03-21T21:38:29.844Z,67.71
2019-03-21T21:41:02.039Z,67.97
2019-03-21T21:43:34.167Z,68.38
2019-03-21T21:46:06.227Z,68.42
2019-03-21T21:48:38.371Z,68.29
2019-03-21T21:51:10.497Z,68.71
2019-03-21T21:53:43.458Z,69.06
2019-03-21T21:56:17.840Z,69.07
2019-03-21T21:58:49.429Z,69.22
2019-03-21T22:01:21.542Z,69.43
2019-03-21T22:04:04.258Z,69.53
2019-03-21T22:06:27.505Z,69.71
2019-03-21T22:08:59.656Z,69.78
2019-03-21T22:11:31.805Z,69.99
2019-03-21T22:14:03.912Z,70.12
2019-03-21T22:16:36.068Z,70.20
2019-03-21T22:19:08.101Z,70.26
2019-03-21T22:21:40.301Z,70.46
2019-03-21T22:24:12.472Z,70.77
2019-03-21T22:26:44.652Z,71.10
2019-03-21T22:29:16.753Z,71.20
2019-03-21T22:31:48.870Z,71.47
2019-03-21T22:34:20.953Z,71.74
2019-03-21T22:36:53.073Z,71.92
2019-03-21T22:39:25.277Z,72.06
2019-03-21T22:41:57.407Z,72.05
2019-03-21T22:44:29.427Z,72.14
2019-03-21T22:47:01.577Z,72.27
2019-03-21T22:49:33.672Z,72.46
2019-03-21T22:52:05.869Z,72.60
2019-03-21T22:54:38.045Z,72.83
2019-03-21T22:57:10.201Z,73.47
2019-03-21T22:59:42.313Z,73.78
2019-03-21T23:02:14.406Z,74.15
2019-03-21T23:04:46.500Z,74.86
2019-03-21T23:07:18.514Z,74.96
2019-03-21T23:09:50.640Z,75.07
2019-03-21T23:12:22.725Z,75.18
2019-03-21T23:14:54.807Z,75.22
2019-03-21T23:17:26.898Z,75.35
2019-03-21T23:19:58.940Z,75.37
2019-03-21T23:22:31.030Z,75.29
2019-03-21T23:25:03.107Z,75.23
2019-03-21T23:27:35.185Z,75.07
2019-03-21T23:30:09.689Z,75.02
2019-03-21T23:32:41.792Z,75.11
2019-03-21T23:35:14.413Z,75.33
2019-03-21T23:37:46.534Z,75.59
2019-03-21T23:40:18.803Z,75.77
2019-03-21T23:42:50.955Z,75.84
2019-03-21T23:45:23.049Z,76.12
2019-03-21T23:47:55.186Z,76.61
2019-03-21T23:50:27.281Z,76.74
2019-03-21T23:52:59.329Z,77.29
2019-03-21T23:55:31.463Z,78.15
2019-03-21T23:58:03.585Z,78.50
